Nearby METAR Reports

 

KTEB - Teterboro, New Jersey, USA
Distance from station: ENE 2mi, 4km
Updated: 09/19/2017 7:32am
Overcast
Overcast
 Wind from NNE
Wind: NNE 8 mph , 13 km/h
Temperature: 72°F , 22°C
Dew Point: 66°F , 19°C
Humidity: 83%
Barometer: 30.01 inHg , 1016.3 hPa
Clouds: Overcast
Visibility: 10 miles , 16 km
Cloud details: Overcast 1200 ft
2017/09/19 11:32 KTEB 191132Z 02007KT 10SM OVC012 22/19 A3001 RMK AO2 T02170189
KNYC - Nyc/Central Park, New York, USA
Distance from station: SE 8mi, 13km
Updated: 09/19/2017 6:51am
Overcast
Overcast
 Wind from ENE
Wind: ENE 8 mph , 13 km/h
Temperature: 72°F , 22°C
Dew Point: 64°F , 18°C
Humidity: 78%
Barometer: 30.04 inHg , 1017.3 hPa
Clouds: Overcast
Visibility: 10 miles , 16 km
Cloud details: Overcast 1300 ft
2017/09/19 10:51 KNYC 191051Z AUTO 07007KT 330V090 10SM OVC013 22/18 A3004 RMK AO2 SLP165 T02170183
 
KCDW - Caldwell, New Jersey, USA
Distance from station: WNW 10mi, 17km
Updated: 09/19/2017 6:53am
Overcast
Overcast
 Wind from NE
Wind: NE 6 mph , 9 km/h
Temperature: 68°F , 20°C
Dew Point: 66°F , 19°C
Humidity: 94%
Barometer: 30.03 inHg , 1016.9 hPa
Clouds: Overcast
Visibility: 10 miles , 16 km
Cloud details: Overcast 1100 ft
2017/09/19 10:53 KCDW 191053Z AUTO 05005KT 10SM OVC011 20/19 A3003 RMK AO2 SLP175 T02000194 TSNO
KLGA - Nyc/La Guardia, New York, USA
Distance from station: ESE 12mi, 19km
Updated: 09/19/2017 6:51am
Overcast
Overcast
 Wind from NNE
Wind: NNE 15 mph , 24 km/h, Gust: 22 mph , 35 km/h
Temperature: 72°F , 22°C
Dew Point: 66°F , 19°C
Humidity: 83%
Barometer: 30.01 inHg , 1016.3 hPa
Clouds: Overcast
Visibility: 10 miles , 16 km
Cloud details: Overcast 1400 ft
2017/09/19 10:51 KLGA 191051Z 03013G19KT 10SM OVC014 22/19 A3001 RMK AO2 SLP161 T02170194 $
 
KEWR - Newark, New Jersey, USA
Distance from station: SSW 12mi, 20km
Updated: 09/19/2017 7:06am
Overcast
Overcast
 Wind from NNE
Wind: NNE 14 mph , 22 km/h
Temperature: 70°F , 21°C
Dew Point: 66°F , 19°C
Humidity: 88%
Barometer: 30.01 inHg , 1016.3 hPa
Clouds: Overcast
Visibility: 10 miles , 16 km
Cloud details: Overcast 1000 ft
2017/09/19 11:06 KEWR 191106Z 02012KT 10SM OVC010 21/19 A3001 RMK AO2 T02110189
KMMU - Morristown Muni, New Jersey, USA
Distance from station: WSW 18mi, 29km
Updated: 09/19/2017 6:46am
Haze, Overcast
Haze, Overcast
 Wind from NE
Wind: NE 8 mph , 13 km/h
Temperature: 68°F , 20°C
Dew Point: 66°F , 19°C
Humidity: 94%
Barometer: 30.03 inHg , 1016.9 hPa
Summary: Haze
Clouds: Overcast
Visibility: 6 miles , 10 km
Cloud details: Overcast 600 ft
2017/09/19 10:46 KMMU 191046Z 04007KT 6SM HZ OVC006 20/19 A3003
 
KJFK - Nyc/Jfk Arpt, New York, USA
Distance from station: SE 23mi, 36km
Updated: 09/19/2017 6:51am
Overcast
Overcast
 Wind from NNE
Wind: NNE 17 mph , 28 km/h
Temperature: 70°F , 21°C
Dew Point: 66°F , 19°C
Humidity: 88%
Barometer: 30.01 inHg , 1016.3 hPa
Clouds: Overcast
Visibility: 10 miles , 16 km
Cloud details: Overcast 1200 ft
2017/09/19 10:51 KJFK 191051Z 03015KT 10SM OVC012 21/19 A3001 RMK AO2 SLP161 T02110189
KHPN - White Plains, New York, USA
Distance from station: NE 25mi, 40km
Updated: 09/19/2017 6:56am
Mostly cloudy
Mostly cloudy
 Wind from NNE
Wind: NNE 9 mph , 15 km/h
Temperature: 68°F , 20°C
Dew Point: 64°F , 18°C
Humidity: 88%
Barometer: 30.03 inHg , 1016.9 hPa
Clouds: Mostly cloudy
Visibility: 10 miles , 16 km
Cloud details: Partly cloudy 1000 ft
Mostly cloudy 3500 ft
2017/09/19 10:56 KHPN 191056Z 02008KT 10SM SCT010 BKN035 20/18 A3003 RMK AO2 SLP166 T02000178
 
KSMQ - Somerville, New Jersey, USA
Distance from station: WSW 34mi, 55km
Updated: 09/06/2017 9:01am
NOT Current
Overcast
Overcast
 Wind from N
Wind: N 9 mph , 15 km/h, Gust: 17 mph , 28 km/h
Temperature: 64°F , 18°C
Dew Point: 61°F , 16°C
Humidity: 88%
Barometer: 29.87 inHg , 1011.5 hPa
Clouds: Overcast
Visibility: 7 miles , 11 km
Cloud details: Partly cloudy 1200 ft
Overcast 2500 ft
2017/09/06 13:01 KSMQ 061301Z AUTO 35008G15KT 7SM SCT012 OVC025 18/16 A2987 RMK AO2 PRESRR T01780161
K12N - Andover, New Jersey, USA
Distance from station: WNW 36mi, 57km
Updated: 09/19/2017 6:54am

 Wind from varies
Wind: varies 5 mph , 7 km/h
Temperature: 64°F , 18°C
Dew Point: 64°F , 18°C
Humidity: 100%
Barometer: 30.06 inHg , 1017.9 hPa
2017/09/19 10:54 K12N 191054Z AUTO VRB04KT 18/18 A3006 RMK AO1 SLP173 T01830178
 
KFRG - Farmingdale, New York, USA
Distance from station: ESE 36mi, 58km
Updated: 09/19/2017 6:53am
Overcast
Overcast
 Wind from NE
Wind: NE 13 mph , 20 km/h, Gust: 21 mph , 33 km/h
Temperature: 70°F , 21°C
Dew Point: 64°F , 18°C
Humidity: 83%
Barometer: 30.01 inHg , 1016.3 hPa
Clouds: Overcast
Visibility: 10 miles , 16 km
Cloud details: Overcast 1100 ft
2017/09/19 10:53 KFRG 191053Z 04011G18KT 10SM OVC011 21/18 A3001 RMK AO2 SLP162 T02060183
KFWN - Sussex, New Jersey, USA
Distance from station: NW 37mi, 60km
Updated: 09/19/2017 6:53am
Overcast
Overcast
 Wind from NE
Wind: NE 6 mph , 9 km/h
Temperature: 66°F , 19°C
Dew Point: 64°F , 18°C
Humidity: 94%
Barometer: 30.06 inHg , 1017.9 hPa
Clouds: Overcast
Visibility: 10 miles , 16 km
Cloud details: Overcast 1000 ft
2017/09/19 10:53 KFWN 191053Z AUTO 04005KT 10SM OVC010 19/18 A3006 RMK AO2 RAB01E14 SLP177 P0000 T01890178
 
KSWF - Newburgh/Stewart, New York, USA
Distance from station: 0 45mi, 72km
Updated: 09/19/2017 6:45am
Overcast
Overcast
 Wind from E
Wind: E 6 mph , 9 km/h
Temperature: 68°F , 20°C
Dew Point: 64°F , 18°C
Humidity: 88%
Barometer: 30.09 inHg , 1019 hPa
Clouds: Overcast
Visibility: 7 miles , 11 km
Cloud details: Overcast 1200 ft
2017/09/19 10:45 KSWF 191045Z 09005KT 7SM OVC012 20/18 A3009
KMGJ - Montgomery, New York, USA
Distance from station: NNW 47mi, 75km
Updated: 09/19/2017 6:54am
Overcast
Overcast
 Wind from NNE
Wind: NNE 9 mph , 15 km/h
Temperature: 66°F , 19°C
Dew Point: 63°F , 17°C
Humidity: 88%
Barometer: 30.07 inHg , 1018.3 hPa
Clouds: Overcast
Visibility: 10 miles , 16 km
Cloud details: Overcast 1500 ft
2017/09/19 10:54 KMGJ 191054Z AUTO 03008KT 10SM OVC015 19/17 A3007 RMK AO2 SLP180 T01890172
 
KBLM - Belmar/Farmdale, New Jersey, USA
Distance from station: S 47mi, 76km
Updated: 09/19/2017 6:56am
Light rain, Overcast
Light rain, Overcast
 Wind from N
Wind: N 13 mph , 20 km/h, Gust: 22 mph , 35 km/h
Temperature: 70°F , 21°C
Dew Point: 66°F , 19°C
Humidity: 88%
Barometer: 29.98 inHg , 1015.2 hPa
Summary: Light rain
Clouds: Overcast
Visibility: 9 miles , 14 km
Cloud details: Overcast 900 ft
2017/09/19 10:56 KBLM 191056Z AUTO 01011G19KT 9SM -RA OVC009 21/19 A2998 RMK AO2 RAB25 SLP156 T02060194
KDXR - Danbury, Connecticut, USA
Distance from station: NE 47mi, 76km
Updated: 09/19/2017 6:53am
Overcast
Overcast
 Wind from ENE
Wind: ENE 8 mph , 13 km/h
Temperature: 68°F , 20°C
Dew Point: 64°F , 18°C
Humidity: 88%
Barometer: 30.08 inHg , 1018.6 hPa
Clouds: Overcast
Visibility: 10 miles , 16 km
Cloud details: Overcast 1000 ft
2017/09/19 10:53 KDXR 191053Z 06007KT 10SM OVC010 20/18 A3008 RMK AO2 SLP183 T02000178
 
KISP - Islip, New York, USA
Distance from station: E 52mi, 83km
Updated: 09/19/2017 6:56am
Overcast
Overcast
 Wind from NNE
Wind: NNE 18 mph , 30 km/h, Gust: 26 mph , 43 km/h
Temperature: 70°F , 21°C
Dew Point: 66°F , 19°C
Humidity: 88%
Barometer: 30.00 inHg , 1015.9 hPa
Clouds: Overcast
Visibility: 10 miles , 16 km
Cloud details: Overcast 800 ft
2017/09/19 10:56 KISP 191056Z 03016G23KT 10SM OVC008 21/19 A3000 RMK AO2 SLP159 T02060189
KBDR - Bridgeport, Connecticut, USA
Distance from station: ENE 54mi, 87km
Updated: 09/19/2017 6:52am
Mostly cloudy
Mostly cloudy
 Wind from NNE
Wind: NNE 14 mph , 22 km/h
Temperature: 70°F , 21°C
Dew Point: 64°F , 18°C
Humidity: 83%
Barometer: 30.03 inHg , 1016.9 hPa
Clouds: Mostly cloudy
Visibility: 10 miles , 16 km
Cloud details: Few Clouds 1200 ft
Mostly cloudy 3300 ft
2017/09/19 10:52 KBDR 191052Z 02012KT 10SM FEW012 BKN033 21/18 A3003 RMK AO2 SLP170 T02060178
 
KTTN - Trenton, New Jersey, USA
Distance from station: SW 55mi, 88km
Updated: 09/19/2017 6:53am
Overcast
Overcast
 Wind from NNE
Wind: NNE 10 mph , 17 km/h
Temperature: 70°F , 21°C
Dew Point: 66°F , 19°C
Humidity: 88%
Barometer: 29.99 inHg , 1015.6 hPa
Clouds: Overcast
Visibility: 8 miles , 13 km
Cloud details: Overcast 600 ft
2017/09/19 10:53 KTTN 191053Z 02009KT 8SM OVC006 21/19 A2999 RMK AO2 SLP149 T02060194
KPOU - Poughkeepsie, New York, USA
Distance from station: N 55mi, 89km
Updated: 09/19/2017 6:53am
Overcast
Overcast
 Wind from N
Wind: N 5 mph , 7 km/h
Temperature: 66°F , 19°C
Dew Point: 63°F , 17°C
Humidity: 88%
Barometer: 30.06 inHg , 1017.9 hPa
Clouds: Overcast
Visibility: 10 miles , 16 km
Cloud details: Overcast 1700 ft
2017/09/19 10:53 KPOU 191053Z AUTO 35004KT 10SM OVC017 19/17 A3006 RMK AO2 SLP176 T01890167
 
KNEL - Lakehurst Nas, New Jersey, USA
Distance from station: SSW 59mi, 95km
Updated: 09/19/2017 7:00am
Light rain, Overcast
Light rain, Overcast
 Wind from varies
Wind: varies 7 mph , 11 km/h, Gust: 16 mph , 26 km/h
Temperature: 70°F , 21°C
Dew Point: 70°F , 21°C
Humidity: 100%
Barometer: 29.96 inHg , 1014.6 hPa
Summary: Light rain
Clouds: Overcast
Cloud details: Overcast 1200 ft
2017/09/19 11:00 KNEL 191100Z AUTO VRB06G14KT -RA OVC012 21/21 A2996 RMK AO2 RAB1030 SLP144 P0000 T02110206 $
KWRI - Wrightst/Mcguire, New Jersey, USA
Distance from station: SSW 63mi, 102km
Updated: 09/19/2017 7:14am
Light drizzle, Overcast
Light drizzle, Overcast
 Wind from N
Wind: N 13 mph , 20 km/h
Temperature: 70°F , 21°C
Dew Point: 68°F , 20°C
Humidity: 94%
Barometer: 29.95 inHg , 1014.2 hPa
Summary: Light Drizzle
Clouds: Overcast
Visibility: 10 miles , 16 km
Cloud details: Overcast 800 ft
2017/09/19 11:14 KWRI 191114Z 01011KT 10SM -DZ OVC008 21/20 A2995 RMK AO2A SLP141
 
KHWV - Shirley, New York, USA
Distance from station: E 64mi, 103km
Updated: 09/19/2017 7:08am
Mostly cloudy
Mostly cloudy
 Wind from N
Wind: N 12 mph , 19 km/h, Gust: 20 mph , 31 km/h
Temperature: 70°F , 21°C
Dew Point: 66°F , 19°C
Humidity: 88%
Barometer: 30.01 inHg , 1016.3 hPa
Clouds: Mostly cloudy
Visibility: 10 miles , 16 km
Cloud details: Mostly cloudy 1000 ft
Mostly cloudy 11000 ft
2017/09/19 11:08 KHWV 191108Z AUTO 36010G17KT 10SM BKN010 BKN110 21/19 A3001 RMK AO2 T02110189
KMJX - Toms River, New Jersey, USA
Distance from station: S 64mi, 104km
Updated: 09/19/2017 7:26am
Overcast
Overcast
 Wind from NNE
Wind: NNE 13 mph , 20 km/h
Temperature: 70°F , 21°C
Dew Point: 68°F , 20°C
Humidity: 94%
Barometer: 29.97 inHg , 1014.9 hPa
Clouds: Overcast
Visibility: 10 miles , 16 km
Cloud details: Overcast 900 ft
2017/09/19 11:26 KMJX 191126Z AUTO 03011KT 10SM OVC009 21/20 A2997 RMK AO2
 
KDYL - Doylestown, Pennsylvania, USA
Distance from station: SW 65mi, 104km
Updated: 09/19/2017 6:54am
Overcast
Overcast
 Wind from NNE
Wind: NNE 8 mph , 13 km/h
Temperature: 68°F , 20°C
Dew Point: 66°F , 19°C
Humidity: 94%
Barometer: 30.01 inHg , 1016.3 hPa
Clouds: Overcast
Visibility: 10 miles , 16 km
Cloud details: Overcast 700 ft
2017/09/19 10:54 KDYL 191054Z AUTO 02007KT 10SM OVC007 20/19 A3001 RMK AO2 SLP159 T02000194
KOXC - Oxford/Waterbury, Connecticut, USA
Distance from station: NE 65mi, 105km
Updated: 09/19/2017 7:26am
Overcast
Overcast
 Wind from NNE
Wind: NNE 14 mph , 22 km/h
Temperature: 64°F , 18°C
Dew Point: 63°F , 17°C
Humidity: 94%
Barometer: 30.08 inHg , 1018.6 hPa
Clouds: Overcast
Visibility: 10 miles , 16 km
Cloud details: Overcast 600 ft
2017/09/19 11:26 KOXC 191126Z 02012KT 10SM OVC006 18/17 A3008 RMK AO2
 
KMSV - Monticello, New York, USA
Distance from station: NNW 69mi, 111km
Updated: 09/19/2017 7:15am
Overcast
Overcast
 Wind from ENE
Wind: ENE 5 mph , 7 km/h
Temperature: 63°F , 17°C
Dew Point: 61°F , 16°C
Humidity: 94%
Barometer: 30.12 inHg , 1020 hPa
Clouds: Overcast
Visibility: 10 miles , 16 km
Cloud details: Overcast 300 ft
2017/09/19 11:15 KMSV 191115Z AUTO 07004KT 10SM OVC003 17/16 A3012 RMK AO2
KHVN - New Haven/Tweed, Connecticut, USA
Distance from station: ENE 70mi, 112km
Updated: 09/19/2017 7:11am
Mostly cloudy
Mostly cloudy
 Wind from NNE
Wind: NNE 16 mph , 26 km/h
Temperature: 68°F , 20°C
Dew Point: 63°F , 17°C
Humidity: 83%
Barometer: 30.04 inHg , 1017.3 hPa
Clouds: Mostly cloudy
Visibility: 10 miles , 16 km
Cloud details: Partly cloudy 1300 ft
Mostly cloudy 2700 ft
Mostly cloudy 25000 ft
2017/09/19 11:11 KHVN 191111Z 02014KT 10SM SCT013 BKN027 BKN250 20/17 A3004 RMK AO2 T02000172
 
KMPO - Mt. Pocono, Pennsylvania, USA
Distance from station: WNW 70mi, 113km
Updated: 09/19/2017 6:53am
Overcast
Overcast
 Wind from ENE
Wind: ENE 8 mph , 13 km/h
Temperature: 63°F , 17°C
Dew Point: 63°F , 17°C
Humidity: 100%
Barometer: 30.11 inHg , 1019.6 hPa
Clouds: Overcast
Visibility: 10 miles , 16 km
Cloud details: Mostly cloudy 300 ft
Overcast 800 ft
2017/09/19 10:53 KMPO 191053Z AUTO 06007KT 10SM BKN003 OVC008 17/17 A3011 RMK AO2 CIG 002V007 SLP188 T01670167
KPNE - Philadelphia/Ne, Pennsylvania, USA
Distance from station: SW 72mi, 116km
Updated: 09/19/2017 6:54am
Overcast
Overcast
 Wind from NNE
Wind: NNE 10 mph , 17 km/h
Temperature: 72°F , 22°C
Dew Point: 66°F , 19°C
Humidity: 83%
Barometer: 30.00 inHg , 1015.9 hPa
Clouds: Overcast
Visibility: 10 miles , 16 km
Cloud details: Overcast 900 ft
2017/09/19 10:54 KPNE 191054Z 02009KT 10SM OVC009 22/19 A3000 RMK AO2 SLP158 T02220194
 
KABE - Allentown, Pennsylvania, USA
Distance from station: W 73mi, 117km
Updated: 09/19/2017 6:51am
Overcast
Overcast
 Wind from NE
Wind: NE 8 mph , 13 km/h
Temperature: 70°F , 21°C
Dew Point: 64°F , 18°C
Humidity: 83%
Barometer: 30.04 inHg , 1017.3 hPa
Clouds: Overcast
Visibility: 10 miles , 16 km
Cloud details: Overcast 1400 ft
2017/09/19 10:51 KABE 191051Z 05007KT 10SM OVC014 21/18 A3004 RMK AO2 SLP170 T02060178
KUKT - Quakertown Arp, Pennsylvania, USA
Distance from station: WSW 74mi, 119km
Updated: 09/19/2017 7:15am
Overcast
Overcast
 Wind from NE
Wind: NE 6 mph , 9 km/h
Temperature: 68°F , 20°C
Dew Point: 66°F , 19°C
Humidity: 94%
Barometer: 30.04 inHg , 1017.3 hPa
Clouds: Overcast
Visibility: 10 miles , 16 km
Cloud details: Overcast 900 ft
2017/09/19 11:15 KUKT 191115Z AUTO 04005KT 10SM OVC009 20/19 A3004 RMK AO1
 
KVAY - Mount Holly, New Jersey, USA
Distance from station: SSW 75mi, 120km
Updated: 09/19/2017 6:54am
Mist, Overcast
Mist, Overcast
 Wind from NNE
Wind: NNE 13 mph , 20 km/h
Temperature: 70°F , 21°C
Dew Point: 70°F , 21°C
Humidity: 100%
Barometer: 29.97 inHg , 1014.9 hPa
Summary: Mist
Clouds: Overcast
Visibility: 5 miles , 8 km
Cloud details: Overcast 600 ft
2017/09/19 10:54 KVAY 191054Z AUTO 02011KT 5SM BR OVC006 21/21 A2997 RMK AO2 SLP149 T02060206 $
KXLL - Allentown Queen, Pennsylvania, USA
Distance from station: WSW 76mi, 122km
Updated: 09/19/2017 7:15am
Overcast
Overcast
 Wind from NE
Wind: NE 8 mph , 13 km/h
Temperature: 68°F , 20°C
Dew Point: 64°F , 18°C
Humidity: 88%
Barometer: 30.05 inHg , 1017.6 hPa
Clouds: Overcast
Visibility: 10 miles , 16 km
Cloud details: Overcast 1000 ft
2017/09/19 11:15 KXLL 191115Z AUTO 04007KT 10SM OVC010 20/18 A3005 RMK AO2
 
KFOK - Westhampton Beac, New York, USA
Distance from station: E 77mi, 124km
Updated: 09/19/2017 6:53am
Mostly cloudy
Mostly cloudy
 Wind from NNE
Wind: NNE 16 mph , 26 km/h, Gust: 26 mph , 43 km/h
Temperature: 66°F , 19°C
Dew Point: 64°F , 18°C
Humidity: 94%
Barometer: 30.01 inHg , 1016.3 hPa
Clouds: Mostly cloudy
Visibility: 10 miles , 16 km
Cloud details: Mostly cloudy 1100 ft
Mostly cloudy 7500 ft
Mostly cloudy 10000 ft
2017/09/19 10:53 KFOK 191053Z 02014G23KT 10SM BKN011 BKN075 BKN100 19/18 A3001 RMK AO2 RAE45 SLP162 P0001 T01940178
KLOM - Philly Wings F, Pennsylvania, USA
Distance from station: SW 79mi, 128km
Updated: 09/19/2017 7:15am
Overcast
Overcast
 Wind from NNE
Wind: NNE 3 mph , 6 km/h
Temperature: 66°F , 19°C
Dew Point: 66°F , 19°C
Humidity: 100%
Barometer: 30.02 inHg , 1016.6 hPa
Clouds: Overcast
Visibility: 7 miles , 11 km
Cloud details: Overcast 700 ft
2017/09/19 11:15 KLOM 191115Z AUTO 02003KT 7SM OVC007 19/19 A3002 RMK AO1
 
KMMK - Meriden, Connecticut, USA
Distance from station: NE 80mi, 128km
Updated: 09/19/2017 6:53am
Overcast
Overcast
 Wind from N
Wind: N 7 mph , 11 km/h
Temperature: 66°F , 19°C
Dew Point: 63°F , 17°C
Humidity: 88%
Barometer: 30.07 inHg , 1018.3 hPa
Clouds: Overcast
Visibility: 10 miles , 16 km
Cloud details: Overcast 1100 ft
2017/09/19 10:53 KMMK 191053Z AUTO 36006KT 10SM OVC011 19/17 A3007 RMK AO2 SLP180 T01940172 TSNO
KPTW - Pottstown, Pennsylvania, USA
Distance from station: WSW 88mi, 141km
Updated: 09/19/2017 6:54am
Overcast
Overcast
 Wind from N
Wind: N 5 mph , 7 km/h
Temperature: 66°F , 19°C
Dew Point: 66°F , 19°C
Humidity: 100%
Barometer: 30.04 inHg , 1017.3 hPa
Clouds: Overcast
Visibility: 9 miles , 14 km
Cloud details: Overcast 1000 ft
2017/09/19 10:54 KPTW 191054Z AUTO 01004KT 9SM OVC010 19/19 A3004 RMK AO2 SLP167 T01940189
 
KSNC - Chester, Connecticut, USA
Distance from station: ENE 90mi, 146km
Updated: 09/19/2017 7:15am
Overcast
Overcast
 Wind from NNE
Wind: NNE 13 mph , 20 km/h
Temperature: 68°F , 20°C
Dew Point: 64°F , 18°C
Humidity: 88%
Barometer: 30.06 inHg , 1017.9 hPa
Clouds: Overcast
Visibility: 10 miles , 16 km
Cloud details: Overcast 700 ft
2017/09/19 11:15 KSNC 191115Z AUTO 03011KT 10SM OVC007 20/18 A3006 RMK AO2
KPHL - Philadelphia, Pennsylvania, USA
Distance from station: SW 91mi, 146km
Updated: 09/19/2017 6:54am
Mostly cloudy
Mostly cloudy
 Wind from N
Wind: N 15 mph , 24 km/h
Temperature: 72°F , 22°C
Dew Point: 66°F , 19°C
Humidity: 83%
Barometer: 29.98 inHg , 1015.2 hPa
Clouds: Mostly cloudy
Visibility: 10 miles , 16 km
Cloud details: Mostly cloudy 1100 ft
Mostly cloudy 2100 ft
2017/09/19 10:54 KPHL 191054Z 01013KT 10SM BKN011 BKN021 22/19 A2998 RMK AO2 SLP152 T02170189
 
KAVP - Avoca/Wilkes B., Pennsylvania, USA
Distance from station: WNW 91mi, 147km
Updated: 09/19/2017 6:54am
Overcast
Overcast
 Wind from NE
Wind: NE 5 mph , 7 km/h
Temperature: 66°F , 19°C
Dew Point: 63°F , 17°C
Humidity: 88%
Barometer: 30.09 inHg , 1019 hPa
Clouds: Overcast
Visibility: 10 miles , 16 km
Cloud details: Overcast 1200 ft
2017/09/19 10:54 KAVP 191054Z 05004KT 10SM OVC012 19/17 A3009 RMK AO2 SLP183 T01890167
KHFD - Hartford/Brainar, Connecticut, USA
Distance from station: NE 96mi, 155km
Updated: 09/19/2017 6:53am
Overcast
Overcast
 Wind from N
Wind: N 12 mph , 19 km/h
Temperature: 66°F , 19°C
Dew Point: 63°F , 17°C
Humidity: 88%
Barometer: 30.08 inHg , 1018.6 hPa
Clouds: Overcast
Visibility: 10 miles , 16 km
Cloud details: Overcast 1200 ft
2017/09/19 10:53 KHFD 191053Z 01010KT 10SM OVC012 19/17 A3008 RMK AO2 SLP186 T01940172
 
KHTO - East Hampton, New York, USA
Distance from station: E 96mi, 155km
Updated: 09/19/2017 7:15am
Light rain, Overcast
Light rain, Overcast
 Wind from NE
Wind: NE 12 mph , 19 km/h, Gust: 22 mph , 35 km/h
Temperature: 66°F , 19°C
Dew Point: 64°F , 18°C
Humidity: 94%
Barometer: 30.02 inHg , 1016.6 hPa
Summary: Light rain
Clouds: Overcast
Visibility: 10 miles , 16 km
Cloud details: Overcast 800 ft
2017/09/19 11:15 KHTO 191115Z AUTO 04010G19KT 10SM -RA OVC008 19/18 A3002 RMK AO2 T01900175
KACY - Atlantic City, New Jersey, USA
Distance from station: SSW 99mi, 160km
Updated: 09/19/2017 7:15am
Overcast
Overcast
 Wind from NNE
Wind: NNE 16 mph , 26 km/h, Gust: 25 mph , 41 km/h
Temperature: 72°F , 22°C
Dew Point: 68°F , 20°C
Humidity: 88%
Barometer: 29.93 inHg , 1013.5 hPa
Clouds: Overcast
Visibility: 10 miles , 16 km
Cloud details: Mostly cloudy 1500 ft
Mostly cloudy 2000 ft
Overcast 12000 ft
2017/09/19 11:15 KACY 191115Z 02014G22KT 10SM BKN015 BKN020 OVC120 22/20 A2993 RMK AO2 T02220200